sensor_id;sensor_type;location;lat;lon;timestamp;temperature;humidity
73137;DHT22;67767;45.636;11.756;2024-01-30T00:01:41;2.00;89.70
73137;DHT22;67767;45.636;11.756;2024-01-30T00:04:07;1.80;89.50
73137;DHT22;67767;45.636;11.756;2024-01-30T00:06:32;1.60;89.80
73137;DHT22;67767;45.636;11.756;2024-01-30T00:08:58;1.90;90.20
73137;DHT22;67767;45.636;11.756;2024-01-30T00:11:24;1.80;90.00
73137;DHT22;67767;45.636;11.756;2024-01-30T00:13:51;1.70;89.90
73137;DHT22;67767;45.636;11.756;2024-01-30T00:16:21;1.50;90.10
73137;DHT22;67767;45.636;11.756;2024-01-30T00:18:47;1.40;90.20
73137;DHT22;67767;45.636;11.756;2024-01-30T00:21:13;1.50;90.30
73137;DHT22;67767;45.636;11.756;2024-01-30T00:23:39;1.40;90.40
73137;DHT22;67767;45.636;11.756;2024-01-30T00:26:05;1.50;90.10
73137;DHT22;67767;45.636;11.756;2024-01-30T00:28:31;1.40;90.00
73137;DHT22;67767;45.636;11.756;2024-01-30T00:30:57;1.30;90.10
73137;DHT22;67767;45.636;11.756;2024-01-30T00:33:22;1.50;90.50
73137;DHT22;67767;45.636;11.756;2024-01-30T00:35:48;1.40;90.20
73137;DHT22;67767;45.636;11.756;2024-01-30T00:38:14;1.10;90.20
73137;DHT22;67767;45.636;11.756;2024-01-30T00:40:39;1.10;91.00
73137;DHT22;67767;45.636;11.756;2024-01-30T00:43:05;1.10;91.40
73137;DHT22;67767;45.636;11.756;2024-01-30T00:45:31;1.10;91.70
73137;DHT22;67767;45.636;11.756;2024-01-30T00:47:56;1.10;91.60
73137;DHT22;67767;45.636;11.756;2024-01-30T00:50:22;0.90;91.60
73137;DHT22;67767;45.636;11.756;2024-01-30T00:52:48;1.10;91.80
73137;DHT22;67767;45.636;11.756;2024-01-30T00:55:15;1.10;91.80
73137;DHT22;67767;45.636;11.756;2024-01-30T00:57:40;0.90;91.70
73137;DHT22;67767;45.636;11.756;2024-01-30T01:00:07;1.10;92.00
73137;DHT22;67767;45.636;11.756;2024-01-30T01:02:35;0.90;91.40
73137;DHT22;67767;45.636;11.756;2024-01-30T01:05:01;1.20;91.30
73137;DHT22;67767;45.636;11.756;2024-01-30T01:07:27;1.10;91.40
73137;DHT22;67767;45.636;11.756;2024-01-30T01:09:52;1.10;91.00
73137;DHT22;67767;45.636;11.756;2024-01-30T01:12:18;1.00;90.80
73137;DHT22;67767;45.636;11.756;2024-01-30T01:14:44;1.30;91.00
73137;DHT22;67767;45.636;11.756;2024-01-30T01:17:10;1.30;90.90
73137;DHT22;67767;45.636;11.756;2024-01-30T01:19:36;1.10;91.40
73137;DHT22;67767;45.636;11.756;2024-01-30T01:22:02;1.20;91.50
73137;DHT22;67767;45.636;11.756;2024-01-30T01:24:30;1.40;91.30
73137;DHT22;67767;45.636;11.756;2024-01-30T01:26:56;1.30;90.90
73137;DHT22;67767;45.636;11.756;2024-01-30T01:29:22;1.50;90.70
73137;DHT22;67767;45.636;11.756;2024-01-30T01:31:57;1.10;90.60
73137;DHT22;67767;45.636;11.756;2024-01-30T01:34:23;1.30;90.50
73137;DHT22;67767;45.636;11.756;2024-01-30T01:36:49;1.00;90.70
73137;DHT22;67767;45.636;11.756;2024-01-30T01:39:15;1.10;90.80
73137;DHT22;67767;45.636;11.756;2024-01-30T01:41:41;1.20;91.20
73137;DHT22;67767;45.636;11.756;2024-01-30T01:44:07;1.20;91.20
73137;DHT22;67767;45.636;11.756;2024-01-30T01:46:34;1.10;91.30
73137;DHT22;67767;45.636;11.756;2024-01-30T01:49:04;1.30;91.00
73137;DHT22;67767;45.636;11.756;2024-01-30T01:51:31;1.20;90.80
73137;DHT22;67767;45.636;11.756;2024-01-30T01:54:00;1.30;90.30
73137;DHT22;67767;45.636;11.756;2024-01-30T01:56:27;1.30;90.10
73137;DHT22;67767;45.636;11.756;2024-01-30T01:58:55;1.00;90.20
73137;DHT22;67767;45.636;11.756;2024-01-30T02:01:21;0.80;90.40
73137;DHT22;67767;45.636;11.756;2024-01-30T02:03:48;1.20;90.50
73137;DHT22;67767;45.636;11.756;2024-01-30T02:06:14;0.90;90.30
73137;DHT22;67767;45.636;11.756;2024-01-30T02:08:42;0.80;90.10
73137;DHT22;67767;45.636;11.756;2024-01-30T02:11:08;1.00;90.10
73137;DHT22;67767;45.636;11.756;2024-01-30T02:13:35;1.10;90.10
73137;DHT22;67767;45.636;11.756;2024-01-30T02:16:01;1.10;90.10
73137;DHT22;67767;45.636;11.756;2024-01-30T02:18:27;1.10;90.10
73137;DHT22;67767;45.636;11.756;2024-01-30T02:20:54;1.20;90.10
73137;DHT22;67767;45.636;11.756;2024-01-30T02:23:24;1.20;90.00
73137;DHT22;67767;45.636;11.756;2024-01-30T02:25:53;1.30;90.00
73137;DHT22;67767;45.636;11.756;2024-01-30T02:28:19;1.20;89.30
73137;DHT22;67767;45.636;11.756;2024-01-30T02:30:45;1.10;89.40
73137;DHT22;67767;45.636;11.756;2024-01-30T02:33:14;0.90;89.80
73137;DHT22;67767;45.636;11.756;2024-01-30T02:35:40;0.70;90.10
73137;DHT22;67767;45.636;11.756;2024-01-30T02:38:05;0.90;90.40
73137;DHT22;67767;45.636;11.756;2024-01-30T02:40:31;0.80;90.50
73137;DHT22;67767;45.636;11.756;2024-01-30T02:42:59;1.00;90.30
73137;DHT22;67767;45.636;11.756;2024-01-30T02:45:25;1.00;90.30
73137;DHT22;67767;45.636;11.756;2024-01-30T02:47:51;1.20;90.00
73137;DHT22;67767;45.636;11.756;2024-01-30T02:50:17;1.10;89.80
73137;DHT22;67767;45.636;11.756;2024-01-30T02:52:43;1.10;90.10
73137;DHT22;67767;45.636;11.756;2024-01-30T02:55:11;1.10;90.10
73137;DHT22;67767;45.636;11.756;2024-01-30T02:57:38;1.10;90.00
73137;DHT22;67767;45.636;11.756;2024-01-30T03:00:04;1.20;90.00
73137;DHT22;67767;45.636;11.756;2024-01-30T03:02:34;1.30;89.70
73137;DHT22;67767;45.636;11.756;2024-01-30T03:05:00;1.20;89.70
73137;DHT22;67767;45.636;11.756;2024-01-30T03:07:26;1.10;89.60
73137;DHT22;67767;45.636;11.756;2024-01-30T03:09:51;1.00;89.80
73137;DHT22;67767;45.636;11.756;2024-01-30T03:12:17;1.30;90.00
73137;DHT22;67767;45.636;11.756;2024-01-30T03:14:43;1.10;90.10
73137;DHT22;67767;45.636;11.756;2024-01-30T03:17:09;1.20;89.70
73137;DHT22;67767;45.636;11.756;2024-01-30T03:19:34;1.10;89.50
73137;DHT22;67767;45.636;11.756;2024-01-30T03:22:00;0.90;89.80
73137;DHT22;67767;45.636;11.756;2024-01-30T03:24:26;0.90;90.20
73137;DHT22;67767;45.636;11.756;2024-01-30T03:26:52;0.80;90.20
73137;DHT22;67767;45.636;11.756;2024-01-30T03:29:18;0.90;90.10
73137;DHT22;67767;45.636;11.756;2024-01-30T03:31:44;1.00;90.00
73137;DHT22;67767;45.636;11.756;2024-01-30T03:34:09;1.00;89.90
73137;DHT22;67767;45.636;11.756;2024-01-30T03:36:35;1.00;90.10
73137;DHT22;67767;45.636;11.756;2024-01-30T03:39:01;1.20;89.90
73137;DHT22;67767;45.636;11.756;2024-01-30T03:41:26;1.00;89.90
73137;DHT22;67767;45.636;11.756;2024-01-30T03:43:52;1.00;89.80
73137;DHT22;67767;45.636;11.756;2024-01-30T03:46:18;0.90;90.20
73137;DHT22;67767;45.636;11.756;2024-01-30T03:48:44;0.90;90.10
73137;DHT22;67767;45.636;11.756;2024-01-30T03:51:10;0.90;90.00
73137;DHT22;67767;45.636;11.756;2024-01-30T03:53:43;1.00;90.10
73137;DHT22;67767;45.636;11.756;2024-01-30T03:56:09;0.90;90.20
73137;DHT22;67767;45.636;11.756;2024-01-30T03:58:35;1.00;90.40
73137;DHT22;67767;45.636;11.756;2024-01-30T04:01:01;1.00;90.30
73137;DHT22;67767;45.636;11.756;2024-01-30T04:03:27;0.90;90.30
73137;DHT22;67767;45.636;11.756;2024-01-30T04:05:53;0.80;90.30
73137;DHT22;67767;45.636;11.756;2024-01-30T04:08:19;0.80;90.30
73137;DHT22;67767;45.636;11.756;2024-01-30T04:10:46;0.70;90.10
73137;DHT22;67767;45.636;11.756;2024-01-30T04:13:12;0.90;90.20
73137;DHT22;67767;45.636;11.756;2024-01-30T04:15:38;0.80;89.60
73137;DHT22;67767;45.636;11.756;2024-01-30T04:18:03;0.60;89.30
73137;DHT22;67767;45.636;11.756;2024-01-30T04:20:30;0.70;89.70
73137;DHT22;67767;45.636;11.756;2024-01-30T04:22:55;0.60;90.00
73137;DHT22;67767;45.636;11.756;2024-01-30T04:25:21;0.60;90.30
73137;DHT22;67767;45.636;11.756;2024-01-30T04:27:47;0.70;90.30
73137;DHT22;67767;45.636;11.756;2024-01-30T04:30:13;0.70;90.40
73137;DHT22;67767;45.636;11.756;2024-01-30T04:32:39;0.50;90.20
73137;DHT22;67767;45.636;11.756;2024-01-30T04:35:05;0.70;90.10
73137;DHT22;67767;45.636;11.756;2024-01-30T04:37:31;0.80;90.10
73137;DHT22;67767;45.636;11.756;2024-01-30T04:39:57;0.80;89.90
73137;DHT22;67767;45.636;11.756;2024-01-30T04:42:22;0.70;89.60
73137;DHT22;67767;45.636;11.756;2024-01-30T04:44:48;0.70;89.60
73137;DHT22;67767;45.636;11.756;2024-01-30T04:47:14;0.70;89.80
73137;DHT22;67767;45.636;11.756;2024-01-30T04:49:40;0.90;89.70
73137;DHT22;67767;45.636;11.756;2024-01-30T04:52:06;0.70;89.60
73137;DHT22;67767;45.636;11.756;2024-01-30T04:54:32;0.80;89.80
73137;DHT22;67767;45.636;11.756;2024-01-30T04:56:58;0.70;89.70
73137;DHT22;67767;45.636;11.756;2024-01-30T04:59:24;0.60;90.00
73137;DHT22;67767;45.636;11.756;2024-01-30T05:01:50;0.50;90.20
73137;DHT22;67767;45.636;11.756;2024-01-30T05:04:15;0.50;90.20
73137;DHT22;67767;45.636;11.756;2024-01-30T05:06:41;0.40;90.50
73137;DHT22;67767;45.636;11.756;2024-01-30T05:09:07;0.60;91.00
73137;DHT22;67767;45.636;11.756;2024-01-30T05:11:39;0.70;90.90
73137;DHT22;67767;45.636;11.756;2024-01-30T05:14:06;0.70;90.80
73137;DHT22;67767;45.636;11.756;2024-01-30T05:16:32;0.80;91.20
73137;DHT22;67767;45.636;11.756;2024-01-30T05:18:58;1.00;91.00
73137;DHT22;67767;45.636;11.756;2024-01-30T05:21:24;1.00;90.60
73137;DHT22;67767;45.636;11.756;2024-01-30T05:23:50;0.70;90.40
73137;DHT22;67767;45.636;11.756;2024-01-30T05:26:16;0.80;90.30
73137;DHT22;67767;45.636;11.756;2024-01-30T05:28:42;0.70;90.50
73137;DHT22;67767;45.636;11.756;2024-01-30T05:31:10;0.50;89.90
73137;DHT22;67767;45.636;11.756;2024-01-30T05:33:35;0.50;90.30
73137;DHT22;67767;45.636;11.756;2024-01-30T05:36:01;0.60;90.70
73137;DHT22;67767;45.636;11.756;2024-01-30T05:38:27;0.60;90.80
73137;DHT22;67767;45.636;11.756;2024-01-30T05:40:52;0.50;90.60
73137;DHT22;67767;45.636;11.756;2024-01-30T05:43:18;0.30;90.40
73137;DHT22;67767;45.636;11.756;2024-01-30T05:45:44;0.30;90.50
73137;DHT22;67767;45.636;11.756;2024-01-30T05:48:10;0.40;90.60
73137;DHT22;67767;45.636;11.756;2024-01-30T05:50:35;0.30;90.50
73137;DHT22;67767;45.636;11.756;2024-01-30T05:53:01;0.10;90.50
73137;DHT22;67767;45.636;11.756;2024-01-30T05:55:27;0.20;90.80
73137;DHT22;67767;45.636;11.756;2024-01-30T05:57:52;0.40;90.90
73137;DHT22;67767;45.636;11.756;2024-01-30T06:00:18;0.40;90.90
73137;DHT22;67767;45.636;11.756;2024-01-30T06:02:44;0.40;90.60
73137;DHT22;67767;45.636;11.756;2024-01-30T06:05:10;0.40;90.50
73137;DHT22;67767;45.636;11.756;2024-01-30T06:07:35;0.40;90.60
73137;DHT22;67767;45.636;11.756;2024-01-30T06:10:01;0.50;90.40
73137;DHT22;67767;45.636;11.756;2024-01-30T06:12:28;0.60;90.50
73137;DHT22;67767;45.636;11.756;2024-01-30T06:14:54;0.50;90.70
73137;DHT22;67767;45.636;11.756;2024-01-30T06:17:22;0.40;89.70
73137;DHT22;67767;45.636;11.756;2024-01-30T06:19:48;0.40;89.80
73137;DHT22;67767;45.636;11.756;2024-01-30T06:22:14;0.30;90.00
73137;DHT22;67767;45.636;11.756;2024-01-30T06:24:39;0.50;90.10
73137;DHT22;67767;45.636;11.756;2024-01-30T06:27:05;0.70;89.90
73137;DHT22;67767;45.636;11.756;2024-01-30T06:29:31;0.50;89.70
73137;DHT22;67767;45.636;11.756;2024-01-30T06:31:56;0.40;89.50
73137;DHT22;67767;45.636;11.756;2024-01-30T06:34:22;0.40;89.60
73137;DHT22;67767;45.636;11.756;2024-01-30T06:36:48;0.60;89.60
73137;DHT22;67767;45.636;11.756;2024-01-30T06:39:14;0.40;89.40
73137;DHT22;67767;45.636;11.756;2024-01-30T06:41:39;0.50;89.80
73137;DHT22;67767;45.636;11.756;2024-01-30T06:44:05;0.60;89.80
73137;DHT22;67767;45.636;11.756;2024-01-30T06:46:32;0.50;89.70
73137;DHT22;67767;45.636;11.756;2024-01-30T06:48:58;0.50;89.90
73137;DHT22;67767;45.636;11.756;2024-01-30T06:51:23;0.50;89.80
73137;DHT22;67767;45.636;11.756;2024-01-30T06:53:49;0.50;89.90
73137;DHT22;67767;45.636;11.756;2024-01-30T06:56:15;0.60;89.90
73137;DHT22;67767;45.636;11.756;2024-01-30T06:58:42;0.60;90.10
73137;DHT22;67767;45.636;11.756;2024-01-30T07:01:07;0.70;89.90
73137;DHT22;67767;45.636;11.756;2024-01-30T07:03:33;0.70;89.10
73137;DHT22;67767;45.636;11.756;2024-01-30T07:05:59;0.50;89.40
73137;DHT22;67767;45.636;11.756;2024-01-30T07:08:24;0.70;89.30
73137;DHT22;67767;45.636;11.756;2024-01-30T07:10:50;0.70;89.70
73137;DHT22;67767;45.636;11.756;2024-01-30T07:13:20;0.50;89.80
73137;DHT22;67767;45.636;11.756;2024-01-30T07:15:46;0.70;90.00
73137;DHT22;67767;45.636;11.756;2024-01-30T07:18:11;0.60;89.70
73137;DHT22;67767;45.636;11.756;2024-01-30T07:20:39;0.30;90.00
73137;DHT22;67767;45.636;11.756;2024-01-30T07:23:11;0.60;90.00
73137;DHT22;67767;45.636;11.756;2024-01-30T07:25:40;0.60;90.00
73137;DHT22;67767;45.636;11.756;2024-01-30T07:28:09;0.70;90.10
73137;DHT22;67767;45.636;11.756;2024-01-30T07:30:36;1.00;89.80
73137;DHT22;67767;45.636;11.756;2024-01-30T07:33:02;0.90;90.00
73137;DHT22;67767;45.636;11.756;2024-01-30T07:35:28;1.10;89.70
73137;DHT22;67767;45.636;11.756;2024-01-30T07:37:54;1.00;89.90
73137;DHT22;67767;45.636;11.756;2024-01-30T07:40:19;1.20;89.30
73137;DHT22;67767;45.636;11.756;2024-01-30T07:42:45;1.10;89.10
73137;DHT22;67767;45.636;11.756;2024-01-30T07:45:11;1.60;89.80
73137;DHT22;67767;45.636;11.756;2024-01-30T07:47:37;1.40;89.10
73137;DHT22;67767;45.636;11.756;2024-01-30T07:50:02;1.40;88.90
73137;DHT22;67767;45.636;11.756;2024-01-30T07:52:28;1.50;89.10
73137;DHT22;67767;45.636;11.756;2024-01-30T07:54:54;1.60;88.60
73137;DHT22;67767;45.636;11.756;2024-01-30T07:57:20;1.70;89.10
73137;DHT22;67767;45.636;11.756;2024-01-30T07:59:46;1.60;89.10
73137;DHT22;67767;45.636;11.756;2024-01-30T08:02:12;1.60;88.80
73137;DHT22;67767;45.636;11.756;2024-01-30T08:04:38;1.70;89.00
73137;DHT22;67767;45.636;11.756;2024-01-30T08:07:04;1.60;88.60
73137;DHT22;67767;45.636;11.756;2024-01-30T08:09:30;1.80;88.60
73137;DHT22;67767;45.636;11.756;2024-01-30T08:11:56;1.80;88.60
73137;DHT22;67767;45.636;11.756;2024-01-30T08:14:21;2.10;88.30
73137;DHT22;67767;45.636;11.756;2024-01-30T08:16:47;2.10;87.80
73137;DHT22;67767;45.636;11.756;2024-01-30T08:19:14;2.30;88.00
73137;DHT22;67767;45.636;11.756;2024-01-30T08:21:40;2.40;87.70
73137;DHT22;67767;45.636;11.756;2024-01-30T08:24:06;2.30;87.80
73137;DHT22;67767;45.636;11.756;2024-01-30T08:26:32;2.50;87.50
73137;DHT22;67767;45.636;11.756;2024-01-30T08:28:58;2.30;87.70
73137;DHT22;67767;45.636;11.756;2024-01-30T08:31:24;2.20;87.90
73137;DHT22;67767;45.636;11.756;2024-01-30T08:33:50;2.10;88.20
73137;DHT22;67767;45.636;11.756;2024-01-30T08:36:16;2.40;88.20
73137;DHT22;67767;45.636;11.756;2024-01-30T08:38:44;2.20;88.20
73137;DHT22;67767;45.636;11.756;2024-01-30T08:41:10;2.50;88.20
73137;DHT22;67767;45.636;11.756;2024-01-30T08:43:36;2.80;87.90
73137;DHT22;67767;45.636;11.756;2024-01-30T08:46:02;3.00;87.70
73137;DHT22;67767;45.636;11.756;2024-01-30T08:48:29;2.90;87.10
73137;DHT22;67767;45.636;11.756;2024-01-30T08:50:54;3.30;87.00
73137;DHT22;67767;45.636;11.756;2024-01-30T08:53:20;3.30;86.80
73137;DHT22;67767;45.636;11.756;2024-01-30T08:55:46;3.70;86.70
73137;DHT22;67767;45.636;11.756;2024-01-30T08:58:12;3.50;86.30
73137;DHT22;67767;45.636;11.756;2024-01-30T09:00:38;3.80;86.50
73137;DHT22;67767;45.636;11.756;2024-01-30T09:03:04;3.80;85.90
73137;DHT22;67767;45.636;11.756;2024-01-30T09:05:29;3.90;86.40
73137;DHT22;67767;45.636;11.756;2024-01-30T09:07:55;4.30;86.30
73137;DHT22;67767;45.636;11.756;2024-01-30T09:10:21;4.30;85.90
73137;DHT22;67767;45.636;11.756;2024-01-30T09:12:47;4.40;86.00
73137;DHT22;67767;45.636;11.756;2024-01-30T09:15:13;4.70;85.60
73137;DHT22;67767;45.636;11.756;2024-01-30T09:17:39;4.30;85.20
73137;DHT22;67767;45.636;11.756;2024-01-30T09:20:05;4.60;85.40
73137;DHT22;67767;45.636;11.756;2024-01-30T09:22:31;4.80;85.40
73137;DHT22;67767;45.636;11.756;2024-01-30T09:24:57;4.90;85.30
73137;DHT22;67767;45.636;11.756;2024-01-30T09:27:23;4.90;85.10
73137;DHT22;67767;45.636;11.756;2024-01-30T09:29:49;5.00;84.90
73137;DHT22;67767;45.636;11.756;2024-01-30T09:32:15;5.30;85.00
73137;DHT22;67767;45.636;11.756;2024-01-30T09:34:41;5.40;84.80
73137;DHT22;67767;45.636;11.756;2024-01-30T09:37:07;5.50;85.20
73137;DHT22;67767;45.636;11.756;2024-01-30T09:39:33;5.60;85.40
73137;DHT22;67767;45.636;11.756;2024-01-30T09:44:43;5.80;84.30
73137;DHT22;67767;45.636;11.756;2024-01-30T09:47:09;5.70;84.50
73137;DHT22;67767;45.636;11.756;2024-01-30T09:49:35;6.30;85.10
73137;DHT22;67767;45.636;11.756;2024-01-30T09:52:03;6.70;84.40
73137;DHT22;67767;45.636;11.756;2024-01-30T09:54:33;7.30;83.90
73137;DHT22;67767;45.636;11.756;2024-01-30T09:56:59;7.90;82.40
73137;DHT22;67767;45.636;11.756;2024-01-30T09:59:25;8.40;81.40
73137;DHT22;67767;45.636;11.756;2024-01-30T10:01:51;8.70;80.40
73137;DHT22;67767;45.636;11.756;2024-01-30T10:04:17;9.40;80.50
73137;DHT22;67767;45.636;11.756;2024-01-30T10:06:43;9.90;79.40
73137;DHT22;67767;45.636;11.756;2024-01-30T10:09:09;10.00;78.80
73137;DHT22;67767;45.636;11.756;2024-01-30T10:11:36;10.10;78.10
73137;DHT22;67767;45.636;11.756;2024-01-30T10:14:02;10.20;77.90
73137;DHT22;67767;45.636;11.756;2024-01-30T10:16:28;9.70;78.20
73137;DHT22;67767;45.636;11.756;2024-01-30T10:18:53;10.00;78.50
73137;DHT22;67767;45.636;11.756;2024-01-30T10:21:19;10.30;78.50
73137;DHT22;67767;45.636;11.756;2024-01-30T10:23:45;10.10;78.30
73137;DHT22;67767;45.636;11.756;2024-01-30T10:26:10;10.00;78.70
73137;DHT22;67767;45.636;11.756;2024-01-30T10:28:36;10.30;78.50
73137;DHT22;67767;45.636;11.756;2024-01-30T10:31:02;9.90;78.40
73137;DHT22;67767;45.636;11.756;2024-01-30T10:33:31;10.00;78.60
73137;DHT22;67767;45.636;11.756;2024-01-30T10:36:01;9.90;77.90
73137;DHT22;67767;45.636;11.756;2024-01-30T10:38:31;10.10;78.20
73137;DHT22;67767;45.636;11.756;2024-01-30T10:40:58;9.90;78.50
73137;DHT22;67767;45.636;11.756;2024-01-30T10:43:35;10.20;78.30
73137;DHT22;67767;45.636;11.756;2024-01-30T10:46:19;10.30;78.60
73137;DHT22;67767;45.636;11.756;2024-01-30T10:48:57;10.30;78.10
73137;DHT22;67767;45.636;11.756;2024-01-30T10:51:27;10.30;78.10
73137;DHT22;67767;45.636;11.756;2024-01-30T10:53:54;10.90;77.60
73137;DHT22;67767;45.636;11.756;2024-01-30T10:56:24;11.00;77.40
73137;DHT22;67767;45.636;11.756;2024-01-30T10:58:51;10.80;75.50
73137;DHT22;67767;45.636;11.756;2024-01-30T11:01:21;11.40;76.20
73137;DHT22;67767;45.636;11.756;2024-01-30T11:03:53;11.90;76.20
73137;DHT22;67767;45.636;11.756;2024-01-30T11:06:22;11.80;75.90
73137;DHT22;67767;45.636;11.756;2024-01-30T11:09:05;11.90;75.30
73137;DHT22;67767;45.636;11.756;2024-01-30T11:12:11;12.00;74.40
73137;DHT22;67767;45.636;11.756;2024-01-30T11:14:37;12.20;74.50
73137;DHT22;67767;45.636;11.756;2024-01-30T11:17:06;12.30;75.70
73137;DHT22;67767;45.636;11.756;2024-01-30T11:19:32;12.40;75.00
73137;DHT22;67767;45.636;11.756;2024-01-30T11:21:59;12.70;75.10
73137;DHT22;67767;45.636;11.756;2024-01-30T11:24:27;13.00;73.30
73137;DHT22;67767;45.636;11.756;2024-01-30T11:26:56;13.40;73.10
73137;DHT22;67767;45.636;11.756;2024-01-30T11:29:28;13.20;72.50
73137;DHT22;67767;45.636;11.756;2024-01-30T11:31:58;13.60;72.40
73137;DHT22;67767;45.636;11.756;2024-01-30T11:34:24;14.00;72.10
73137;DHT22;67767;45.636;11.756;2024-01-30T11:37:04;14.60;71.60
73137;DHT22;67767;45.636;11.756;2024-01-30T11:39:32;14.70;71.30
73137;DHT22;67767;45.636;11.756;2024-01-30T11:41:59;14.50;71.10
73137;DHT22;67767;45.636;11.756;2024-01-30T11:44:25;14.40;71.30
73137;DHT22;67767;45.636;11.756;2024-01-30T11:46:51;14.80;71.30
73137;DHT22;67767;45.636;11.756;2024-01-30T11:49:18;14.20;71.50
73137;DHT22;67767;45.636;11.756;2024-01-30T11:51:45;14.70;71.20
73137;DHT22;67767;45.636;11.756;2024-01-30T11:54:11;14.90;71.60
73137;DHT22;67767;45.636;11.756;2024-01-30T11:56:37;15.30;70.90
73137;DHT22;67767;45.636;11.756;2024-01-30T11:59:04;15.70;65.60
73137;DHT22;67767;45.636;11.756;2024-01-30T12:01:30;14.80;70.80
73137;DHT22;67767;45.636;11.756;2024-01-30T12:03:57;15.20;71.20
73137;DHT22;67767;45.636;11.756;2024-01-30T12:06:23;15.20;71.10
73137;DHT22;67767;45.636;11.756;2024-01-30T12:08:59;15.30;70.90
73137;DHT22;67767;45.636;11.756;2024-01-30T12:11:26;15.10;70.90
73137;DHT22;67767;45.636;11.756;2024-01-30T12:13:52;14.80;70.80
73137;DHT22;67767;45.636;11.756;2024-01-30T12:16:19;15.70;64.60
73137;DHT22;67767;45.636;11.756;2024-01-30T12:18:45;15.30;70.80
73137;DHT22;67767;45.636;11.756;2024-01-30T12:21:10;15.60;65.00
73137;DHT22;67767;45.636;11.756;2024-01-30T12:23:36;15.50;64.20
73137;DHT22;67767;45.636;11.756;2024-01-30T12:26:03;15.40;70.50
73137;DHT22;67767;45.636;11.756;2024-01-30T12:28:32;15.40;70.50
73137;DHT22;67767;45.636;11.756;2024-01-30T12:31:04;16.00;62.60
73137;DHT22;67767;45.636;11.756;2024-01-30T12:33:30;16.60;61.50
73137;DHT22;67767;45.636;11.756;2024-01-30T12:35:57;16.60;61.60
73137;DHT22;67767;45.636;11.756;2024-01-30T12:38:27;16.80;59.90
73137;DHT22;67767;45.636;11.756;2024-01-30T12:40:55;16.30;62.20
73137;DHT22;67767;45.636;11.756;2024-01-30T12:43:22;16.10;59.30
73137;DHT22;67767;45.636;11.756;2024-01-30T12:45:48;16.40;59.60
73137;DHT22;67767;45.636;11.756;2024-01-30T12:48:14;17.10;59.20
73137;DHT22;67767;45.636;11.756;2024-01-30T12:50:39;16.40;59.00
73137;DHT22;67767;45.636;11.756;2024-01-30T12:53:05;17.20;57.70
73137;DHT22;67767;45.636;11.756;2024-01-30T12:55:31;18.10;56.50
73137;DHT22;67767;45.636;11.756;2024-01-30T12:57:57;17.80;57.10
73137;DHT22;67767;45.636;11.756;2024-01-30T13:00:22;17.80;58.00
73137;DHT22;67767;45.636;11.756;2024-01-30T13:02:48;17.10;58.50
73137;DHT22;67767;45.636;11.756;2024-01-30T13:05:14;17.60;57.80
73137;DHT22;67767;45.636;11.756;2024-01-30T13:07:40;18.20;56.70
73137;DHT22;67767;45.636;11.756;2024-01-30T13:10:06;18.40;56.30
73137;DHT22;67767;45.636;11.756;2024-01-30T13:12:32;18.90;55.40
73137;DHT22;67767;45.636;11.756;2024-01-30T13:15:01;19.00;56.40
73137;DHT22;67767;45.636;11.756;2024-01-30T13:17:29;18.10;58.50
73137;DHT22;67767;45.636;11.756;2024-01-30T13:19:54;19.70;55.50
73137;DHT22;67767;45.636;11.756;2024-01-30T13:22:20;19.50;55.80
73137;DHT22;67767;45.636;11.756;2024-01-30T13:24:49;19.40;55.00
73137;DHT22;67767;45.636;11.756;2024-01-30T13:27:15;18.90;55.00
73137;DHT22;67767;45.636;11.756;2024-01-30T13:29:41;19.30;55.90
73137;DHT22;67767;45.636;11.756;2024-01-30T13:32:06;19.80;54.90
73137;DHT22;67767;45.636;11.756;2024-01-30T13:34:32;19.40;55.60
73137;DHT22;67767;45.636;11.756;2024-01-30T13:36:58;19.80;55.00
73137;DHT22;67767;45.636;11.756;2024-01-30T13:39:24;19.60;55.40
73137;DHT22;67767;45.636;11.756;2024-01-30T13:41:49;19.50;54.60
73137;DHT22;67767;45.636;11.756;2024-01-30T13:44:16;18.70;54.50
73137;DHT22;67767;45.636;11.756;2024-01-30T13:46:43;19.70;53.50
73137;DHT22;67767;45.636;11.756;2024-01-30T13:49:09;20.20;51.40
73137;DHT22;67767;45.636;11.756;2024-01-30T13:51:34;19.30;53.40
73137;DHT22;67767;45.636;11.756;2024-01-30T13:54:00;19.90;52.30
73137;DHT22;67767;45.636;11.756;2024-01-30T13:56:26;20.60;51.80
73137;DHT22;67767;45.636;11.756;2024-01-30T13:58:52;20.60;51.80
73137;DHT22;67767;45.636;11.756;2024-01-30T14:01:18;20.70;52.30
73137;DHT22;67767;45.636;11.756;2024-01-30T14:03:44;19.90;53.00
73137;DHT22;67767;45.636;11.756;2024-01-30T14:06:11;18.90;54.70
73137;DHT22;67767;45.636;11.756;2024-01-30T14:08:36;18.40;55.80
73137;DHT22;67767;45.636;11.756;2024-01-30T14:11:02;18.30;56.00
73137;DHT22;67767;45.636;11.756;2024-01-30T14:13:29;18.80;55.50
73137;DHT22;67767;45.636;11.756;2024-01-30T14:15:55;18.70;51.80
73137;DHT22;67767;45.636;11.756;2024-01-30T14:18:21;19.20;52.50
73137;DHT22;67767;45.636;11.756;2024-01-30T14:20:47;19.70;51.50
73137;DHT22;67767;45.636;11.756;2024-01-30T14:23:12;19.90;51.60
73137;DHT22;67767;45.636;11.756;2024-01-30T14:25:38;18.90;52.90
73137;DHT22;67767;45.636;11.756;2024-01-30T14:28:04;19.20;52.80
73137;DHT22;67767;45.636;11.756;2024-01-30T14:30:30;18.80;53.00
73137;DHT22;67767;45.636;11.756;2024-01-30T14:32:55;18.60;53.40
73137;DHT22;67767;45.636;11.756;2024-01-30T14:35:21;18.30;54.80
73137;DHT22;67767;45.636;11.756;2024-01-30T14:37:47;19.10;54.00
73137;DHT22;67767;45.636;11.756;2024-01-30T14:40:13;19.00;53.10
73137;DHT22;67767;45.636;11.756;2024-01-30T14:42:38;19.30;52.70
73137;DHT22;67767;45.636;11.756;2024-01-30T14:45:05;18.90;53.80
73137;DHT22;67767;45.636;11.756;2024-01-30T14:47:31;17.30;54.30
73137;DHT22;67767;45.636;11.756;2024-01-30T14:49:57;16.50;55.50
73137;DHT22;67767;45.636;11.756;2024-01-30T14:52:23;15.50;56.10
73137;DHT22;67767;45.636;11.756;2024-01-30T14:54:49;14.90;59.60
73137;DHT22;67767;45.636;11.756;2024-01-30T14:57:15;14.50;60.40
73137;DHT22;67767;45.636;11.756;2024-01-30T14:59:40;14.20;61.00
73137;DHT22;67767;45.636;11.756;2024-01-30T15:02:06;14.00;62.50
73137;DHT22;67767;45.636;11.756;2024-01-30T15:04:33;13.70;64.50
73137;DHT22;67767;45.636;11.756;2024-01-30T15:06:59;13.70;70.30
73137;DHT22;67767;45.636;11.756;2024-01-30T15:09:25;13.60;70.50
73137;DHT22;67767;45.636;11.756;2024-01-30T15:11:52;13.40;71.00
73137;DHT22;67767;45.636;11.756;2024-01-30T15:14:18;13.10;71.70
73137;DHT22;67767;45.636;11.756;2024-01-30T15:16:43;13.20;71.50
73137;DHT22;67767;45.636;11.756;2024-01-30T15:19:09;13.20;71.70
73137;DHT22;67767;45.636;11.756;2024-01-30T15:21:35;13.10;71.60
73137;DHT22;67767;45.636;11.756;2024-01-30T15:24:02;13.10;71.10